createdAt,value
2019-04-07T00:00:48.643Z,85.90
2019-04-07T00:03:17.461Z,86.20
2019-04-07T00:05:46.307Z,86.30
2019-04-07T00:08:15.145Z,86.60
2019-04-07T00:10:44.676Z,86.60
2019-04-07T00:13:14.238Z,87.20
2019-04-07T00:15:43.341Z,87.50
2019-04-07T00:18:12.074Z,87.00
2019-04-07T00:20:40.770Z,87.30
2019-04-07T00:23:09.621Z,87.70
2019-04-07T00:25:38.641Z,88.20
2019-04-07T00:28:07.403Z,88.00
2019-04-07T00:30:36.491Z,87.80
2019-04-07T00:33:05.282Z,88.10
2019-04-07T00:35:33.951Z,87.70
2019-04-07T00:38:02.636Z,87.50
2019-04-07T00:40:33.962Z,87.40
2019-04-07T00:43:03.393Z,87.50
2019-04-07T00:45:32.022Z,87.40
2019-04-07T00:48:00.768Z,88.20
2019-04-07T00:50:30.710Z,88.00
2019-04-07T00:53:00.144Z,88.20
2019-04-07T00:55:28.842Z,88.20
2019-04-07T00:57:58.341Z,88.30
2019-04-07T01:00:29.098Z,88.00
2019-04-07T01:02:58.290Z,87.50
2019-04-07T01:05:35.371Z,87.10
2019-04-07T01:07:57.494Z,87.30
2019-04-07T01:10:26.296Z,87.40
2019-04-07T01:12:55.565Z,87.00
2019-04-07T01:15:24.292Z,86.90
2019-04-07T01:17:53.335Z,87.20
2019-04-07T01:20:22.704Z,86.70
2019-04-07T01:22:51.589Z,87.00
2019-04-07T01:25:20.387Z,86.90
2019-04-07T01:27:49.124Z,86.90
2019-04-07T01:30:18.363Z,87.10
2019-04-07T01:32:47.171Z,87.40
2019-04-07T01:35:15.833Z,87.60
2019-04-07T01:37:44.591Z,88.10
2019-04-07T01:40:13.503Z,88.20
2019-04-07T01:42:49.877Z,88.40
2019-04-07T01:45:36.954Z,88.80
2019-04-07T01:48:07.416Z,90.10
2019-04-07T01:50:53.927Z,90.00
2019-04-07T01:53:40.799Z,90.10
2019-04-07T01:56:11.108Z,90.10
2019-04-07T01:58:41.653Z,89.80
2019-04-07T02:01:27.350Z,89.50
2019-04-07T02:04:15.455Z,89.50
2019-04-07T02:07:01.851Z,89.30
2019-04-07T02:09:32.463Z,89.10
2019-04-07T02:12:18.961Z,88.90
2019-04-07T02:15:06.335Z,89.10
2019-04-07T02:17:37.215Z,89.10
2019-04-07T02:20:13.506Z,89.10
2019-04-07T02:22:46.668Z,89.30
2019-04-07T02:25:19.993Z,88.90
2019-04-07T02:27:51.109Z,89.10
2019-04-07T02:30:37.661Z,88.90
2019-04-07T02:33:10.948Z,89.10
2019-04-07T02:35:57.549Z,89.10
2019-04-07T02:38:39.720Z,89.00
2019-04-07T02:41:16.042Z,89.10
2019-04-07T02:43:55.626Z,89.00
2019-04-07T02:46:26.984Z,89.30
2019-04-07T02:49:04.164Z,89.60
2019-04-07T02:51:46.218Z,89.60
2019-04-07T02:54:17.326Z,89.60
2019-04-07T02:57:04.047Z,89.80
2019-04-07T02:59:50.206Z,90.30
2019-04-07T03:02:30.268Z,90.10
2019-04-07T03:05:09.184Z,90.20
2019-04-07T03:07:51.629Z,90.20
2019-04-07T03:10:40.538Z,90.30
2019-04-07T03:13:17.009Z,90.60
2019-04-07T03:15:49.373Z,90.70
2019-04-07T03:18:24.289Z,90.50
2019-04-07T03:21:05.528Z,90.20
2019-04-07T03:23:41.721Z,90.20
2019-04-07T03:26:30.039Z,90.00
2019-04-07T03:29:12.018Z,89.80
2019-04-07T03:31:51.609Z,89.60
2019-04-07T03:34:31.362Z,89.60
2019-04-07T03:37:30.388Z,89.40
2019-04-07T03:39:41.101Z,88.60
2019-04-07T03:42:27.311Z,87.40
2019-04-07T03:45:06.689Z,87.70
2019-04-07T03:47:37.624Z,87.40
2019-04-07T03:50:21.818Z,87.50
2019-04-07T03:53:03.262Z,87.70
2019-04-07T03:55:36.575Z,87.50
2019-04-07T03:58:22.917Z,87.20
2019-04-07T04:01:01.375Z,87.20
2019-04-07T04:03:46.804Z,87.00
2019-04-07T04:06:17.479Z,86.80
2019-04-07T04:08:48.942Z,87.20
2019-04-07T04:11:20.232Z,87.50
2019-04-07T04:14:02.954Z,87.90
2019-04-07T04:16:32.503Z,87.70
2019-04-07T04:19:02.370Z,87.50
2019-04-07T04:21:31.174Z,87.70
2019-04-07T04:24:00.560Z,87.40
2019-04-07T04:26:30.732Z,87.60
2019-04-07T04:28:59.906Z,87.60
2019-04-07T04:31:29.408Z,87.80
2019-04-07T04:33:58.184Z,88.30
2019-04-07T04:36:27.254Z,88.60
2019-04-07T04:38:56.030Z,88.60
2019-04-07T04:41:25.205Z,88.50
2019-04-07T04:43:54.724Z,88.90
2019-04-07T04:46:23.893Z,89.00
2019-04-07T04:48:52.658Z,88.40
2019-04-07T04:51:21.417Z,88.50
2019-04-07T04:53:50.382Z,88.60
2019-04-07T04:56:19.944Z,89.20
2019-04-07T04:58:48.705Z,89.50
2019-04-07T05:01:17.549Z,89.40
2019-04-07T05:03:46.301Z,89.60
2019-04-07T05:06:15.028Z,89.50
2019-04-07T05:08:44.370Z,89.40
2019-04-07T05:11:13.504Z,89.50
2019-04-07T05:13:42.186Z,89.30
2019-04-07T05:16:10.805Z,89.20
2019-04-07T05:18:39.503Z,88.90
2019-04-07T05:21:08.528Z,88.80
2019-04-07T05:23:37.196Z,88.60
2019-04-07T05:26:05.804Z,88.20
2019-04-07T05:28:36.882Z,88.00
2019-04-07T05:31:05.623Z,87.60
2019-04-07T05:33:34.549Z,87.50
2019-04-07T05:36:03.753Z,87.60
2019-04-07T05:38:32.550Z,87.50
2019-04-07T05:41:01.871Z,87.00
2019-04-07T05:43:30.578Z,86.50
2019-04-07T05:45:59.410Z,85.80
2019-04-07T05:48:28.294Z,85.30
2019-04-07T05:51:00.500Z,84.70
2019-04-07T05:53:27.760Z,85.00
2019-04-07T05:55:56.615Z,84.60
2019-04-07T05:58:25.357Z,84.60
2019-04-07T06:00:54.755Z,85.10
2019-04-07T06:03:23.534Z,84.50
2019-04-07T06:05:52.812Z,84.80
2019-04-07T06:08:29.509Z,85.20
2019-04-07T06:10:56.550Z,85.50
2019-04-07T06:13:22.515Z,85.60
2019-04-07T06:15:52.237Z,85.10
2019-04-07T06:18:21.834Z,84.90
2019-04-07T06:20:50.510Z,85.30
2019-04-07T06:23:22.752Z,85.60
2019-04-07T06:25:50.119Z,85.70
2019-04-07T06:28:19.297Z,86.10
2019-04-07T06:30:48.359Z,85.90
2019-04-07T06:33:17.488Z,85.50
2019-04-07T06:35:47.470Z,85.60
2019-04-07T06:38:16.650Z,85.00
2019-04-07T06:40:45.929Z,83.90
2019-04-07T06:43:14.629Z,83.10
2019-04-07T06:45:57.342Z,81.80
2019-04-07T06:48:26.704Z,80.50
2019-04-07T06:50:59.341Z,80.00
2019-04-07T06:53:32.537Z,78.80
2019-04-07T06:56:05.208Z,78.00
2019-04-07T06:58:40.863Z,77.50
2019-04-07T07:01:11.106Z,77.40
2019-04-07T07:03:47.605Z,77.60
2019-04-07T07:06:18.487Z,77.80
2019-04-07T07:08:53.018Z,78.10
2019-04-07T07:11:31.627Z,77.60
2019-04-07T07:14:02.159Z,77.40
2019-04-07T07:16:32.578Z,77.10
2019-04-07T07:19:06.320Z,77.80
2019-04-07T07:21:39.420Z,78.00
2019-04-07T07:24:07.181Z,77.90
2019-04-07T07:26:36.633Z,78.10
2019-04-07T07:29:06.701Z,78.40
2019-04-07T07:31:35.790Z,77.70
2019-04-07T07:34:05.062Z,77.10
2019-04-07T07:36:33.875Z,77.40
2019-04-07T07:39:08.294Z,77.40
2019-04-07T07:41:33.052Z,77.90
2019-04-07T07:44:03.777Z,77.50
2019-04-07T07:46:32.309Z,77.50
2019-04-07T07:49:02.076Z,77.60
2019-04-07T07:51:31.400Z,78.20
2019-04-07T07:54:01.164Z,78.00
2019-04-07T07:56:31.530Z,77.90
2019-04-07T07:59:01.795Z,77.60
2019-04-07T08:01:31.066Z,76.70
2019-04-07T08:03:59.878Z,76.80
2019-04-07T08:06:28.578Z,77.10
2019-04-07T08:09:07.418Z,76.90
2019-04-07T08:11:30.768Z,77.20
2019-04-07T08:13:57.983Z,76.70
2019-04-07T08:16:29.373Z,75.10
2019-04-07T08:18:59.207Z,76.10
2019-04-07T08:21:28.012Z,74.80
2019-04-07T08:23:56.855Z,74.90
2019-04-07T08:26:26.042Z,74.80
2019-04-07T08:28:54.838Z,75.00
2019-04-07T08:31:24.121Z,75.10
2019-04-07T08:33:53.713Z,74.70
2019-04-07T08:36:22.714Z,74.50
2019-04-07T08:39:00.624Z,74.60
2019-04-07T08:41:29.356Z,72.60
2019-04-07T08:43:59.796Z,72.80
2019-04-07T08:46:32.060Z,72.80
2019-04-07T08:49:03.150Z,72.20
2019-04-07T08:51:32.618Z,71.10
2019-04-07T08:54:04.529Z,70.50
2019-04-07T08:56:32.952Z,70.20
2019-04-07T08:59:01.709Z,69.30
2019-04-07T09:01:31.431Z,68.10
2019-04-07T09:04:00.275Z,66.90
2019-04-07T09:06:29.594Z,66.10
2019-04-07T09:08:58.966Z,64.70
2019-04-07T09:11:28.373Z,63.80
2019-04-07T09:13:57.129Z,63.70
2019-04-07T09:16:28.027Z,63.40
2019-04-07T09:19:03.795Z,64.60
2019-04-07T09:21:38.855Z,63.60
2019-04-07T09:24:08.258Z,63.20
2019-04-07T09:26:44.550Z,63.20
2019-04-07T09:29:28.184Z,63.80
2019-04-07T09:31:58.838Z,62.30
2019-04-07T09:34:32.359Z,61.50
2019-04-07T09:37:03.230Z,60.50
2019-04-07T09:39:54.699Z,59.90
2019-04-07T09:42:23.827Z,59.30
2019-04-07T09:45:10.971Z,56.40
2019-04-07T09:47:57.574Z,55.90
2019-04-07T09:50:43.757Z,57.00
2019-04-07T09:53:23.035Z,56.10
2019-04-07T09:56:02.679Z,55.50
2019-04-07T09:58:48.020Z,55.30
2019-04-07T10:01:27.671Z,54.40
2019-04-07T10:04:01.394Z,52.10
2019-04-07T10:06:49.572Z,51.90
2019-04-07T10:09:28.950Z,50.20
2019-04-07T10:12:10.714Z,48.90
2019-04-07T10:14:53.106Z,47.70
2019-04-07T10:17:39.480Z,46.90
2019-04-07T10:20:11.176Z,49.00
2019-04-07T10:22:41.503Z,49.60
2019-04-07T10:25:15.508Z,49.20
2019-04-07T10:28:02.854Z,47.90
2019-04-07T10:30:33.184Z,47.30
2019-04-07T10:33:13.166Z,47.90
2019-04-07T10:35:52.564Z,46.80
2019-04-07T10:38:35.111Z,44.90
2019-04-07T10:41:08.165Z,45.40
2019-04-07T10:43:45.159Z,45.10
2019-04-07T10:46:21.547Z,42.20
2019-04-07T10:48:54.730Z,42.30
2019-04-07T10:51:25.302Z,41.60
2019-04-07T10:53:56.205Z,39.20
2019-04-07T10:56:26.620Z,36.80
2019-04-07T10:59:05.622Z,37.50
2019-04-07T11:01:51.321Z,38.50
2019-04-07T11:04:21.841Z,38.90
2019-04-07T11:06:54.708Z,38.70
2019-04-07T11:09:40.574Z,38.20
2019-04-07T11:12:16.765Z,37.50
2019-04-07T11:14:55.951Z,36.60
2019-04-07T11:17:32.493Z,37.70
2019-04-07T11:20:08.294Z,38.70
2019-04-07T11:22:55.089Z,38.20
2019-04-07T11:25:28.404Z,38.00
2019-04-07T11:28:13.763Z,37.40
2019-04-07T11:31:00.486Z,37.20
2019-04-07T11:33:30.781Z,36.30
2019-04-07T11:36:20.120Z,34.00
2019-04-07T11:38:54.858Z,34.60
2019-04-07T11:41:28.770Z,35.60
2019-04-07T11:44:05.372Z,38.50
2019-04-07T11:46:50.871Z,37.50
2019-04-07T11:49:24.680Z,36.20
2019-04-07T11:52:01.628Z,35.60
2019-04-07T11:54:49.121Z,34.50
2019-04-07T11:57:32.018Z,33.10
2019-04-07T12:00:02.502Z,36.30
2019-04-07T12:02:49.331Z,36.40
2019-04-07T12:05:32.066Z,35.30
2019-04-07T12:08:09.328Z,36.20
2019-04-07T12:10:58.635Z,39.00
2019-04-07T12:13:23.676Z,41.40
2019-04-07T12:16:03.630Z,40.50
2019-04-07T12:18:50.175Z,37.80
2019-04-07T12:21:22.593Z,34.70
2019-04-07T12:23:54.152Z,36.90
2019-04-07T12:26:42.448Z,36.30
2019-04-07T12:29:24.406Z,34.00
2019-04-07T12:32:09.665Z,36.90
2019-04-07T12:34:46.404Z,35.40
2019-04-07T12:37:15.551Z,34.80
2019-04-07T12:39:49.518Z,34.90
2019-04-07T12:42:26.697Z,37.00
2019-04-07T12:45:14.767Z,38.50
2019-04-07T12:47:45.840Z,38.50
2019-04-07T12:50:32.829Z,39.50
2019-04-07T12:53:04.874Z,39.90
2019-04-07T12:55:35.152Z,39.80
2019-04-07T12:58:17.458Z,38.50
2019-04-07T13:00:57.850Z,37.10
2019-04-07T13:03:28.884Z,36.30
2019-04-07T13:06:04.074Z,33.70
2019-04-07T13:08:40.359Z,33.40
2019-04-07T13:11:26.478Z,35.10
2019-04-07T13:14:01.631Z,32.70
2019-04-07T13:16:38.108Z,34.80
2019-04-07T13:19:11.763Z,36.80
2019-04-07T13:21:56.523Z,36.00
2019-04-07T13:24:38.920Z,36.50
2019-04-07T13:27:17.167Z,36.90
2019-04-07T13:29:53.166Z,38.00
2019-04-07T13:32:43.192Z,39.00
2019-04-07T13:35:26.930Z,38.60
2019-04-07T13:38:02.846Z,35.30
2019-04-07T13:40:40.723Z,32.20
2019-04-07T13:43:13.458Z,31.60
2019-04-07T13:45:46.209Z,30.50
2019-04-07T13:48:33.405Z,29.30
2019-04-07T13:51:21.571Z,29.20
2019-04-07T13:53:59.866Z,28.70
2019-04-07T13:56:50.549Z,28.60
2019-04-07T13:59:40.026Z,28.10
2019-04-07T14:02:19.639Z,27.80
2019-04-07T14:05:11.113Z,28.50
2019-04-07T14:07:39.881Z,30.30
2019-04-07T14:10:10.333Z,32.10
2019-04-07T14:12:50.055Z,34.40
2019-04-07T14:15:32.361Z,34.10
2019-04-07T14:18:14.390Z,32.60
2019-04-07T14:20:57.823Z,31.00
2019-04-07T14:23:28.680Z,30.90
2019-04-07T14:25:59.077Z,30.80
2019-04-07T14:28:29.804Z,31.90
2019-04-07T14:31:00.953Z,32.20
2019-04-07T14:33:48.003Z,32.20
2019-04-07T14:36:35.047Z,34.20
2019-04-07T14:39:22.176Z,34.80
2019-04-07T14:42:00.962Z,34.80
2019-04-07T14:44:40.085Z,36.10
2019-04-07T14:47:22.487Z,36.70
2019-04-07T14:50:09.314Z,37.90
2019-04-07T14:52:43.449Z,38.60
2019-04-07T14:55:14.015Z,39.00
2019-04-07T14:57:53.565Z,38.50
2019-04-07T15:00:29.682Z,38.70
2019-04-07T15:02:58.287Z,39.60
2019-04-07T15:05:28.803Z,41.20
2019-04-07T15:08:02.019Z,42.40
2019-04-07T15:10:50.294Z,42.20
2019-04-07T15:13:23.913Z,40.10
2019-04-07T15:15:51.678Z,40.50
2019-04-07T15:18:21.581Z,40.50
2019-04-07T15:20:50.551Z,41.70
2019-04-07T15:23:19.859Z,41.60
2019-04-07T15:25:49.408Z,41.40
2019-04-07T15:28:18.059Z,42.20
2019-04-07T15:30:48.255Z,43.00
2019-04-07T15:33:17.766Z,43.50
2019-04-07T15:35:49.446Z,43.30
2019-04-07T15:38:16.848Z,42.70
2019-04-07T15:40:45.955Z,42.60
2019-04-07T15:43:14.671Z,42.60
2019-04-07T15:45:44.536Z,43.10
2019-04-07T15:48:13.739Z,41.90
2019-04-07T15:50:42.881Z,42.00
2019-04-07T15:53:14.366Z,42.50
2019-04-07T15:55:52.655Z,43.60
2019-04-07T15:58:14.940Z,44.00
2019-04-07T16:00:44.203Z,44.40
2019-04-07T16:03:15.745Z,44.70
2019-04-07T16:05:46.075Z,44.50
2019-04-07T16:08:14.406Z,44.50
2019-04-07T16:10:43.142Z,44.40
2019-04-07T16:13:11.860Z,44.10
2019-04-07T16:15:42.867Z,44.20
2019-04-07T16:18:11.128Z,44.20
2019-04-07T16:20:40.707Z,51.00
2019-04-07T16:23:10.638Z,54.90
2019-04-07T16:25:40.580Z,57.40
2019-04-07T16:28:12.888Z,59.40
2019-04-07T16:30:40.755Z,59.90
2019-04-07T16:33:10.009Z,60.10
2019-04-07T16:35:38.722Z,61.50
2019-04-07T16:38:07.454Z,62.60
2019-04-07T16:40:36.217Z,64.10
2019-04-07T16:43:13.285Z,65.50
2019-04-07T16:45:35.259Z,66.80
2019-04-07T16:48:04.981Z,68.20
2019-04-07T16:50:35.056Z,68.40
2019-04-07T16:53:06.511Z,68.50
2019-04-07T16:55:40.221Z,69.00
2019-04-07T16:58:10.081Z,69.40
2019-04-07T17:00:39.812Z,70.40
2019-04-07T17:03:09.868Z,70.60
2019-04-07T17:05:39.699Z,69.60
2019-04-07T17:08:08.725Z,69.30
2019-04-07T17:10:37.431Z,70.50
2019-04-07T17:13:16.708Z,69.80
2019-04-07T17:15:39.599Z,71.00
2019-04-07T17:18:09.670Z,72.00
2019-04-07T17:20:38.477Z,72.60
2019-04-07T17:23:08.482Z,72.20
2019-04-07T17:25:37.591Z,71.80
2019-04-07T17:28:06.494Z,72.40
2019-04-07T17:30:38.003Z,72.40
2019-04-07T17:33:06.440Z,71.50
2019-04-07T17:35:35.856Z,70.50
2019-04-07T17:38:06.918Z,70.50
2019-04-07T17:40:37.633Z,70.40
2019-04-07T17:43:11.784Z,69.90
2019-04-07T17:45:45.120Z,69.10
2019-04-07T17:48:37.410Z,68.90
2019-04-07T17:51:15.500Z,68.60
2019-04-07T17:53:51.734Z,68.70
2019-04-07T17:56:33.798Z,69.00
2019-04-07T17:59:19.278Z,69.10
2019-04-07T18:01:52.519Z,69.20
2019-04-07T18:04:24.983Z,69.70
2019-04-07T18:06:56.066Z,69.80
2019-04-07T18:09:44.919Z,70.10
2019-04-07T18:12:33.093Z,70.90
2019-04-07T18:15:09.871Z,71.40
2019-04-07T18:17:46.021Z,71.40
2019-04-07T18:20:21.517Z,70.90
2019-04-07T18:22:54.653Z,70.60
2019-04-07T18:25:34.366Z,70.80
2019-04-07T18:28:05.549Z,71.30
2019-04-07T18:30:39.519Z,71.50
2019-04-07T18:33:16.399Z,71.20
2019-04-07T18:35:45.228Z,71.10
2019-04-07T18:38:24.300Z,71.30
2019-04-07T18:41:11.092Z,71.50
2019-04-07T18:43:52.188Z,70.50
2019-04-07T18:46:31.476Z,70.50
2019-04-07T18:49:18.061Z,70.00
2019-04-07T18:51:49.455Z,69.40
2019-04-07T18:54:26.918Z,69.50
2019-04-07T18:57:03.952Z,69.40
2019-04-07T18:59:34.270Z,69.80
2019-04-07T19:02:04.622Z,69.90
2019-04-07T19:04:34.994Z,69.60
2019-04-07T19:07:05.381Z,69.40
2019-04-07T19:09:39.233Z,69.60
2019-04-07T19:12:16.682Z,69.60
2019-04-07T19:14:48.891Z,69.90
2019-04-07T19:17:17.004Z,70.00
2019-04-07T19:19:53.311Z,70.50
2019-04-07T19:22:26.466Z,70.20
2019-04-07T19:25:05.117Z,70.20
2019-04-07T19:27:46.142Z,70.50
2019-04-07T19:30:38.710Z,70.70
2019-04-07T19:33:14.835Z,71.00
2019-04-07T19:35:48.649Z,70.40
2019-04-07T19:38:37.335Z,70.40
2019-04-07T19:41:06.842Z,70.90
2019-04-07T19:43:49.999Z,70.70
2019-04-07T19:46:29.202Z,70.80
2019-04-07T19:48:59.033Z,70.90
2019-04-07T19:51:31.995Z,71.30
2019-04-07T19:54:13.578Z,71.30
2019-04-07T19:56:43.660Z,71.10
2019-04-07T19:59:19.796Z,71.60
2019-04-07T20:02:06.037Z,71.30
2019-04-07T20:04:53.535Z,71.00
2019-04-07T20:07:28.593Z,71.80
2019-04-07T20:09:57.726Z,71.80
2019-04-07T20:12:45.423Z,72.00
2019-04-07T20:15:36.484Z,72.70
2019-04-07T20:18:24.495Z,73.50
2019-04-07T20:20:57.293Z,74.20
2019-04-07T20:23:30.414Z,74.90
2019-04-07T20:26:08.754Z,75.50
2019-04-07T20:28:45.054Z,75.40
2019-04-07T20:31:24.084Z,75.50
2019-04-07T20:34:09.806Z,76.60
2019-04-07T20:36:40.292Z,77.40
2019-04-07T20:39:11.438Z,76.60
2019-04-07T20:41:43.091Z,76.60
2019-04-07T20:44:33.873Z,77.00
2019-04-07T20:47:01.944Z,77.20
2019-04-07T20:49:50.230Z,77.00
2019-04-07T20:52:24.026Z,77.20
2019-04-07T20:54:54.967Z,77.30
2019-04-07T20:57:41.183Z,76.70
2019-04-07T21:00:29.324Z,76.90
2019-04-07T21:03:13.861Z,76.00
2019-04-07T21:05:46.349Z,76.80
2019-04-07T21:08:33.554Z,77.20
2019-04-07T21:11:07.386Z,77.70
2019-04-07T21:13:52.647Z,78.20
2019-04-07T21:16:31.537Z,78.30
2019-04-07T21:19:17.596Z,78.70
2019-04-07T21:21:47.920Z,78.90
2019-04-07T21:24:21.265Z,78.90
2019-04-07T21:26:52.006Z,79.20
2019-04-07T21:29:34.481Z,79.10
2019-04-07T21:32:10.910Z,79.00
2019-04-07T21:34:41.250Z,78.40
2019-04-07T21:37:28.378Z,78.20
2019-04-07T21:40:04.107Z,77.70
2019-04-07T21:42:42.571Z,78.00
2019-04-07T21:45:12.970Z,78.00
2019-04-07T21:48:01.483Z,78.00
2019-04-07T21:50:34.333Z,78.00
2019-04-07T21:53:07.163Z,77.30
2019-04-07T21:55:46.292Z,77.20
2019-04-07T21:58:16.683Z,76.60
2019-04-07T22:00:47.686Z,76.40
2019-04-07T22:03:33.238Z,76.50
2019-04-07T22:06:18.423Z,77.00
2019-04-07T22:09:03.461Z,77.20
2019-04-07T22:11:32.638Z,77.90
2019-04-07T22:14:04.076Z,78.90
2019-04-07T22:16:32.813Z,79.20
2019-04-07T22:19:01.908Z,79.50
2019-04-07T22:21:30.617Z,79.10
2019-04-07T22:24:01.329Z,79.70
2019-04-07T22:26:29.775Z,80.00
2019-04-07T22:29:02.124Z,79.90
2019-04-07T22:31:31.076Z,80.50
2019-04-07T22:34:01.223Z,81.90
2019-04-07T22:36:30.116Z,81.70
2019-04-07T22:39:01.265Z,82.10
2019-04-07T22:41:29.130Z,82.70
2019-04-07T22:43:57.904Z,82.90
2019-04-07T22:46:27.334Z,83.20
2019-04-07T22:48:58.324Z,83.60
2019-04-07T22:51:26.475Z,83.70
2019-04-07T22:53:57.543Z,83.60
2019-04-07T22:56:25.556Z,84.10
2019-04-07T22:58:54.254Z,85.00
2019-04-07T23:01:23.114Z,85.70
2019-04-07T23:03:51.935Z,85.80
2019-04-07T23:06:21.080Z,85.90
2019-04-07T23:08:50.902Z,85.50
2019-04-07T23:11:20.425Z,85.40
2019-04-07T23:13:49.343Z,84.70
2019-04-07T23:16:18.920Z,85.30
2019-04-07T23:18:48.099Z,85.50
2019-04-07T23:21:17.240Z,86.20
2019-04-07T23:23:46.251Z,86.10
2019-04-07T23:26:15.909Z,86.50
2019-04-07T23:28:44.738Z,86.80
2019-04-07T23:31:13.833Z,86.50
2019-04-07T23:33:42.664Z,87.70
2019-04-07T23:36:11.647Z,87.00
2019-04-07T23:38:41.126Z,86.90
2019-04-07T23:41:09.929Z,87.00
2019-04-07T23:43:39.516Z,87.50
2019-04-07T23:46:19.890Z,87.40
2019-04-07T23:48:38.832Z,87.50
2019-04-07T23:51:07.610Z,87.70
2019-04-07T23:54:11.122Z,87.80
2019-04-07T23:56:41.625Z,89.10
2019-04-07T23:59:10.603Z,88.00
